createdAt,value
2023-03-08T00:01:22.619Z,5.00
2023-03-08T00:03:56.463Z,5.00
2023-03-08T00:06:24.412Z,5.00
2023-03-08T00:08:54.604Z,5.00
2023-03-08T00:11:21.497Z,5.00
2023-03-08T00:13:48.386Z,4.90
2023-03-08T00:16:15.293Z,4.90
2023-03-08T00:18:42.216Z,4.70
2023-03-08T00:21:13.470Z,4.70
2023-03-08T00:23:40.437Z,4.70
2023-03-08T00:26:07.193Z,4.70
2023-03-08T00:28:34.057Z,4.60
2023-03-08T00:31:02.685Z,4.60
2023-03-08T00:33:30.622Z,4.60
2023-03-08T00:36:08.357Z,4.70
2023-03-08T00:38:37.586Z,4.70
2023-03-08T00:41:04.463Z,4.70
2023-03-08T00:43:32.784Z,4.70
2023-03-08T00:46:03.322Z,4.70
2023-03-08T00:48:30.512Z,4.70
2023-03-08T00:50:57.336Z,4.70
2023-03-08T00:53:24.197Z,4.70
2023-03-08T00:55:51.094Z,4.70
2023-03-08T00:58:18.372Z,4.60
2023-03-08T01:00:45.766Z,4.50
2023-03-08T01:03:13.133Z,4.50
2023-03-08T01:05:43.974Z,4.40
2023-03-08T01:08:13.051Z,4.30
2023-03-08T01:10:40.091Z,4.20
2023-03-08T01:13:07.784Z,4.10
2023-03-08T01:15:38.518Z,4.00
2023-03-08T01:18:05.853Z,4.00
2023-03-08T01:20:33.094Z,4.00
2023-03-08T01:22:59.975Z,3.80
2023-03-08T01:25:26.998Z,3.80
2023-03-08T01:27:53.864Z,3.70
2023-03-08T01:30:20.895Z,3.80
2023-03-08T01:32:47.773Z,3.70
2023-03-08T01:35:14.528Z,3.70
2023-03-08T01:37:41.379Z,3.70
2023-03-08T01:40:08.583Z,3.50
2023-03-08T01:42:37.448Z,3.50
2023-03-08T01:45:05.939Z,3.50
2023-03-08T01:47:36.202Z,3.40
2023-03-08T01:50:29.228Z,3.50
2023-03-08T01:52:58.024Z,3.20
2023-03-08T01:55:24.916Z,3.10
2023-03-08T01:57:54.090Z,3.10
2023-03-08T02:00:25.403Z,2.90
2023-03-08T02:02:55.493Z,3.00
2023-03-08T02:05:23.359Z,2.90
2023-03-08T02:07:54.130Z,2.80
2023-03-08T02:10:24.940Z,2.70
2023-03-08T02:12:53.740Z,2.80
2023-03-08T02:15:21.795Z,2.80
2023-03-08T02:17:52.531Z,2.80
2023-03-08T02:20:32.348Z,2.80
2023-03-08T02:23:14.287Z,2.80
2023-03-08T02:25:42.423Z,2.80
2023-03-08T02:28:09.317Z,2.70
2023-03-08T02:30:37.425Z,2.80
2023-03-08T02:33:04.295Z,2.70
2023-03-08T02:35:32.054Z,2.70
2023-03-08T02:37:58.856Z,2.70
2023-03-08T02:40:26.044Z,2.60
2023-03-08T02:42:53.614Z,2.60
2023-03-08T02:45:20.517Z,2.70
2023-03-08T02:47:47.339Z,2.90
2023-03-08T02:50:14.877Z,2.70
2023-03-08T02:52:41.768Z,2.70
2023-03-08T02:55:08.794Z,2.70
2023-03-08T02:57:35.695Z,2.70
2023-03-08T03:00:04.605Z,2.70
2023-03-08T03:02:32.918Z,2.50
2023-03-08T03:04:59.669Z,2.60
2023-03-08T03:07:27.752Z,2.60
2023-03-08T03:10:31.534Z,2.70
2023-03-08T03:12:58.521Z,2.70
2023-03-08T03:15:29.406Z,2.80
2023-03-08T03:17:58.490Z,2.80
2023-03-08T03:20:25.587Z,2.70
2023-03-08T03:22:52.393Z,2.70
2023-03-08T03:25:23.258Z,2.70
2023-03-08T03:27:50.467Z,2.70
2023-03-08T03:30:18.552Z,2.70
2023-03-08T03:32:46.427Z,2.70
2023-03-08T03:35:16.858Z,2.80
2023-03-08T03:37:44.205Z,2.90
2023-03-08T03:40:12.235Z,2.90
2023-03-08T03:42:38.993Z,2.90
2023-03-08T03:45:10.702Z,2.90
2023-03-08T03:47:38.741Z,2.90
2023-03-08T03:50:08.051Z,3.00
2023-03-08T03:52:46.696Z,3.00
2023-03-08T03:55:13.514Z,3.00
2023-03-08T03:57:40.624Z,3.00
2023-03-08T04:00:08.882Z,3.10
2023-03-08T04:02:40.539Z,3.10
2023-03-08T04:05:10.178Z,3.10
2023-03-08T04:07:38.060Z,3.00
2023-03-08T04:10:06.945Z,3.10
2023-03-08T04:12:35.188Z,2.90
2023-03-08T04:15:02.042Z,3.00
2023-03-08T04:17:31.239Z,2.90
2023-03-08T04:19:58.090Z,2.80
2023-03-08T04:22:27.470Z,2.90
2023-03-08T04:25:02.334Z,2.80
2023-03-08T04:27:39.319Z,2.80
2023-03-08T04:30:06.997Z,2.80
2023-03-08T04:32:35.349Z,2.90
2023-03-08T04:35:02.962Z,2.90
2023-03-08T04:37:31.853Z,3.00
2023-03-08T04:40:09.316Z,3.00
2023-03-08T04:42:41.927Z,3.10
2023-03-08T04:45:10.986Z,3.10
2023-03-08T04:47:37.844Z,3.20
2023-03-08T04:50:04.889Z,3.10
2023-03-08T04:52:33.303Z,3.10
2023-03-08T04:55:00.473Z,3.10
2023-03-08T04:57:27.672Z,3.10
2023-03-08T04:59:57.699Z,3.20
2023-03-08T05:02:24.589Z,3.10
2023-03-08T05:04:51.626Z,3.20
2023-03-08T05:07:18.753Z,3.20
2023-03-08T05:09:47.124Z,3.20
2023-03-08T05:12:14.090Z,3.10
2023-03-08T05:14:49.113Z,3.20
2023-03-08T05:17:16.602Z,3.20
2023-03-08T05:19:43.542Z,3.10
2023-03-08T05:22:12.443Z,3.10
2023-03-08T05:24:46.206Z,3.20
2023-03-08T05:27:14.097Z,3.30
2023-03-08T05:29:41.419Z,3.40
2023-03-08T05:32:11.000Z,3.30
2023-03-08T05:34:38.038Z,3.30
2023-03-08T05:37:07.675Z,3.20
2023-03-08T05:39:37.157Z,3.20
2023-03-08T05:42:12.873Z,3.20
2023-03-08T05:44:43.029Z,3.30
2023-03-08T05:47:12.218Z,3.10
2023-03-08T05:49:39.011Z,3.20
2023-03-08T05:52:07.174Z,3.40
2023-03-08T05:54:35.584Z,3.40
2023-03-08T05:57:08.144Z,3.50
2023-03-08T05:59:36.247Z,3.40
2023-03-08T06:02:05.069Z,3.50
2023-03-08T06:04:42.977Z,3.60
2023-03-08T06:07:11.328Z,3.50
2023-03-08T06:09:42.843Z,3.70
2023-03-08T06:12:14.036Z,3.80
2023-03-08T06:14:40.931Z,3.70
2023-03-08T06:17:08.038Z,3.80
2023-03-08T06:19:38.065Z,3.80
2023-03-08T06:22:04.900Z,3.90
2023-03-08T06:24:32.098Z,3.90
2023-03-08T06:27:01.863Z,3.80
2023-03-08T06:29:28.734Z,3.90
2023-03-08T06:31:55.998Z,3.80
2023-03-08T06:34:23.175Z,3.80
2023-03-08T06:36:52.786Z,3.80
2023-03-08T06:39:21.271Z,3.90
2023-03-08T06:41:48.169Z,3.90
2023-03-08T06:44:15.057Z,3.90
2023-03-08T06:46:41.857Z,3.90
2023-03-08T06:49:09.181Z,4.00
2023-03-08T06:51:37.929Z,4.30
2023-03-08T06:54:05.039Z,4.30
2023-03-08T06:56:32.748Z,4.20
2023-03-08T06:59:00.101Z,4.10
2023-03-08T07:01:27.242Z,4.20
2023-03-08T07:03:54.027Z,4.20
2023-03-08T07:06:20.808Z,4.00
2023-03-08T07:08:47.599Z,4.00
2023-03-08T07:11:14.390Z,4.10
2023-03-08T07:13:41.517Z,4.20
2023-03-08T07:16:09.627Z,4.10
2023-03-08T07:18:36.729Z,4.30
2023-03-08T07:21:03.857Z,4.20
2023-03-08T07:23:30.779Z,4.10
2023-03-08T07:25:57.575Z,4.20
2023-03-08T07:28:24.512Z,4.20
2023-03-08T07:30:52.269Z,4.10
2023-03-08T07:33:19.804Z,4.10
2023-03-08T07:35:46.557Z,4.10
2023-03-08T07:38:13.611Z,4.10
2023-03-08T07:40:40.467Z,4.10
2023-03-08T07:43:07.556Z,4.10
2023-03-08T07:46:04.335Z,4.10
2023-03-08T07:48:31.786Z,4.20
2023-03-08T07:51:03.137Z,4.20
2023-03-08T07:53:30.319Z,4.30
2023-03-08T07:55:57.701Z,4.30
2023-03-08T07:58:24.947Z,4.50
2023-03-08T08:00:51.703Z,4.30
2023-03-08T08:03:18.686Z,4.20
2023-03-08T08:05:45.636Z,4.20
2023-03-08T08:08:13.888Z,4.20
2023-03-08T08:10:41.231Z,4.20
2023-03-08T08:13:08.131Z,3.80
2023-03-08T08:15:35.000Z,3.70
2023-03-08T08:18:01.928Z,3.30
2023-03-08T08:20:28.890Z,3.10
2023-03-08T08:22:55.925Z,3.00
2023-03-08T08:25:22.817Z,2.90
2023-03-08T08:27:50.065Z,2.80
2023-03-08T08:30:16.870Z,2.70
2023-03-08T08:32:43.723Z,2.70
2023-03-08T08:35:11.427Z,2.70
2023-03-08T08:37:38.300Z,3.00
2023-03-08T08:40:08.085Z,2.90
2023-03-08T08:42:35.001Z,2.80
2023-03-08T08:45:01.832Z,2.80
2023-03-08T08:47:29.959Z,2.90
2023-03-08T08:49:56.801Z,2.90
2023-03-08T08:52:23.565Z,2.80
2023-03-08T08:54:52.129Z,2.60
2023-03-08T08:57:18.914Z,2.60
2023-03-08T08:59:46.421Z,2.60
2023-03-08T09:02:13.577Z,2.70
2023-03-08T09:04:40.640Z,2.70
2023-03-08T09:07:07.773Z,3.00
2023-03-08T09:09:34.634Z,3.00
2023-03-08T09:12:01.508Z,3.20
2023-03-08T09:14:28.343Z,3.30
2023-03-08T09:16:55.256Z,3.50
2023-03-08T09:19:22.226Z,3.40
2023-03-08T09:21:48.948Z,3.40
2023-03-08T09:24:16.682Z,3.20
2023-03-08T09:26:43.547Z,3.10
2023-03-08T09:29:10.739Z,3.00
2023-03-08T09:31:38.159Z,3.10
2023-03-08T09:34:08.770Z,3.10
2023-03-08T09:36:41.888Z,3.10
2023-03-08T09:39:09.805Z,3.10
2023-03-08T09:41:45.762Z,3.10
2023-03-08T09:44:16.246Z,3.10
2023-03-08T09:46:46.295Z,3.10
2023-03-08T09:49:15.078Z,3.30
2023-03-08T09:51:45.142Z,3.50
2023-03-08T09:54:13.907Z,3.50
2023-03-08T09:56:44.887Z,3.60
2023-03-08T09:59:19.487Z,3.60
2023-03-08T10:01:58.166Z,3.50
2023-03-08T10:05:09.946Z,3.60
2023-03-08T10:07:47.422Z,3.60
2023-03-08T10:10:17.284Z,3.70
2023-03-08T10:13:03.871Z,3.50
2023-03-08T10:15:32.093Z,3.60
2023-03-08T10:18:04.629Z,3.70
2023-03-08T10:20:32.897Z,3.80
2023-03-08T10:23:01.120Z,3.90
2023-03-08T10:25:31.270Z,3.90
2023-03-08T10:27:59.271Z,3.80
2023-03-08T10:30:27.794Z,4.00
2023-03-08T10:32:56.792Z,4.10
2023-03-08T10:35:31.265Z,4.00
2023-03-08T10:37:58.155Z,4.10
2023-03-08T10:40:24.935Z,4.10
2023-03-08T10:43:03.958Z,4.00
2023-03-08T10:45:31.041Z,4.00
2023-03-08T10:48:01.990Z,3.90
2023-03-08T10:50:30.196Z,4.00
2023-03-08T10:53:07.620Z,4.10
2023-03-08T10:55:40.453Z,4.20
2023-03-08T10:58:23.743Z,4.20
2023-03-08T11:00:53.342Z,4.40
2023-03-08T11:03:21.286Z,4.40
2023-03-08T11:05:55.920Z,4.40
2023-03-08T11:08:24.565Z,4.50
2023-03-08T11:11:01.638Z,4.70
2023-03-08T11:13:47.916Z,4.60
2023-03-08T11:16:20.504Z,4.50
2023-03-08T11:18:50.356Z,4.40
2023-03-08T11:21:30.910Z,4.40
2023-03-08T11:24:11.501Z,4.40
2023-03-08T11:27:01.532Z,4.60
2023-03-08T11:29:45.665Z,4.50
2023-03-08T11:32:12.507Z,4.60
2023-03-08T11:34:39.240Z,4.70
2023-03-08T11:37:12.379Z,4.60
2023-03-08T11:39:46.418Z,4.70
2023-03-08T11:42:17.577Z,4.60
2023-03-08T11:45:04.610Z,4.70
2023-03-08T11:47:54.378Z,4.70
2023-03-08T11:50:39.877Z,4.80
2023-03-08T11:53:09.658Z,5.00
2023-03-08T11:55:42.152Z,5.10
2023-03-08T11:58:18.760Z,4.90
2023-03-08T12:00:47.217Z,5.00
2023-03-08T12:03:18.469Z,5.30
2023-03-08T12:05:50.348Z,5.50
2023-03-08T12:08:20.276Z,5.40
2023-03-08T12:10:50.028Z,5.30
2023-03-08T12:13:19.832Z,5.30
2023-03-08T12:15:48.916Z,5.30
2023-03-08T12:18:24.823Z,5.40
2023-03-08T12:20:55.194Z,5.50
2023-03-08T12:23:28.512Z,5.40
2023-03-08T12:26:01.692Z,5.10
2023-03-08T12:28:38.386Z,5.30
2023-03-08T12:31:27.330Z,5.50
2023-03-08T12:33:56.304Z,5.60
2023-03-08T12:36:35.438Z,5.40
2023-03-08T12:39:06.396Z,5.50
2023-03-08T12:41:33.331Z,5.70
2023-03-08T12:44:21.948Z,5.90
2023-03-08T12:47:03.493Z,6.00
2023-03-08T12:49:39.093Z,6.00
2023-03-08T12:52:21.888Z,6.10
2023-03-08T12:54:57.715Z,6.10
2023-03-08T12:57:27.618Z,6.10
2023-03-08T13:00:19.590Z,6.20
2023-03-08T13:02:46.775Z,6.40
2023-03-08T13:05:40.066Z,6.40
2023-03-08T13:08:12.997Z,6.30
2023-03-08T13:10:41.537Z,5.90
2023-03-08T13:13:20.555Z,5.80
2023-03-08T13:16:17.560Z,5.90
2023-03-08T13:18:45.776Z,6.20
2023-03-08T13:21:34.484Z,6.10
2023-03-08T13:24:32.416Z,6.30
2023-03-08T13:27:18.080Z,6.20
2023-03-08T13:29:46.777Z,6.10
2023-03-08T13:32:16.481Z,6.40
2023-03-08T13:34:46.356Z,6.60
2023-03-08T13:37:22.230Z,7.10
2023-03-08T13:39:53.242Z,7.60
2023-03-08T13:42:24.756Z,7.80
2023-03-08T13:44:52.650Z,8.10
2023-03-08T13:47:26.570Z,8.00
2023-03-08T13:49:54.793Z,8.10
2023-03-08T13:52:29.353Z,7.90
2023-03-08T13:54:57.641Z,7.90
2023-03-08T13:57:28.854Z,7.80
2023-03-08T14:00:04.653Z,8.00
2023-03-08T14:02:32.079Z,8.20
2023-03-08T14:04:59.179Z,8.30
2023-03-08T14:07:28.146Z,8.50
2023-03-08T14:09:55.365Z,8.60
2023-03-08T14:12:24.064Z,8.90
2023-03-08T14:14:55.564Z,9.00
2023-03-08T14:17:24.077Z,9.00
2023-03-08T14:19:55.238Z,8.90
2023-03-08T14:22:38.218Z,8.80
2023-03-08T14:25:07.272Z,8.80
2023-03-08T14:27:41.668Z,8.80
2023-03-08T14:30:18.708Z,8.80
2023-03-08T14:32:57.778Z,8.70
2023-03-08T14:35:26.685Z,8.70
2023-03-08T14:37:56.893Z,8.70
2023-03-08T14:40:26.875Z,8.80
2023-03-08T14:42:55.017Z,8.70
2023-03-08T14:45:22.605Z,8.80
2023-03-08T14:47:51.765Z,8.80
2023-03-08T14:50:23.888Z,8.80
2023-03-08T14:52:52.111Z,8.80
2023-03-08T14:55:30.373Z,8.80
2023-03-08T14:58:04.556Z,8.80
2023-03-08T15:00:31.936Z,8.80
2023-03-08T15:02:59.219Z,8.80
2023-03-08T15:05:29.652Z,8.80
2023-03-08T15:07:58.172Z,8.80
2023-03-08T15:10:27.393Z,8.80
2023-03-08T15:12:54.360Z,8.80
2023-03-08T15:15:21.137Z,8.80
2023-03-08T15:17:47.947Z,8.90
2023-03-08T15:20:15.189Z,8.80
2023-03-08T15:22:49.569Z,8.90
2023-03-08T15:25:27.380Z,8.90
2023-03-08T15:27:54.227Z,8.90
2023-03-08T15:30:23.011Z,9.00
2023-03-08T15:32:50.054Z,9.10
2023-03-08T15:35:17.013Z,9.10
2023-03-08T15:37:43.999Z,9.20
2023-03-08T15:40:14.813Z,9.20
2023-03-08T15:42:41.654Z,9.20
2023-03-08T15:45:09.530Z,9.20
2023-03-08T15:47:36.345Z,9.20
2023-03-08T15:50:03.729Z,9.20
2023-03-08T15:52:31.161Z,9.10
2023-03-08T15:54:58.176Z,9.30
2023-03-08T15:57:25.018Z,9.30
2023-03-08T15:59:51.865Z,9.40
2023-03-08T16:02:19.674Z,9.40
2023-03-08T16:04:47.711Z,9.30
2023-03-08T16:07:19.264Z,9.30
2023-03-08T16:09:46.540Z,9.40
2023-03-08T16:12:14.296Z,9.40
2023-03-08T16:14:46.469Z,9.40
2023-03-08T16:17:16.207Z,9.40
2023-03-08T16:19:43.971Z,9.40
2023-03-08T16:22:11.272Z,9.40
2023-03-08T16:24:38.088Z,9.40
2023-03-08T16:27:05.080Z,9.40
2023-03-08T16:29:32.511Z,9.40
2023-03-08T16:31:59.437Z,9.40
2023-03-08T16:34:27.303Z,9.30
2023-03-08T16:36:54.383Z,9.30
2023-03-08T16:39:21.580Z,9.30
2023-03-08T16:41:48.549Z,9.30
2023-03-08T16:44:22.683Z,9.30
2023-03-08T16:46:49.577Z,9.30
2023-03-08T16:49:17.184Z,9.20
2023-03-08T16:51:44.071Z,9.20
2023-03-08T16:54:11.886Z,9.30
2023-03-08T16:56:39.563Z,9.20
2023-03-08T16:59:06.618Z,9.20
2023-03-08T17:01:33.606Z,9.20
2023-03-08T17:04:00.862Z,9.20
2023-03-08T17:06:29.381Z,9.10
2023-03-08T17:08:57.330Z,9.10
2023-03-08T17:11:25.987Z,9.10
2023-03-08T17:13:55.331Z,9.10
2023-03-08T17:16:23.186Z,9.10
2023-03-08T17:18:50.506Z,9.10
2023-03-08T17:21:17.998Z,9.20
2023-03-08T17:23:46.052Z,9.10
2023-03-08T17:26:13.811Z,9.10
2023-03-08T17:28:41.655Z,9.00
2023-03-08T17:31:09.309Z,8.90
2023-03-08T17:33:36.106Z,9.00
2023-03-08T17:36:03.154Z,9.00
2023-03-08T17:38:30.021Z,9.00
2023-03-08T17:40:57.011Z,8.80
2023-03-08T17:43:23.771Z,8.80
2023-03-08T17:46:04.321Z,8.80
2023-03-08T17:48:31.139Z,8.90
2023-03-08T17:51:02.482Z,8.80
2023-03-08T17:53:29.534Z,8.90
2023-03-08T17:55:56.337Z,8.80
2023-03-08T17:58:23.464Z,8.80
2023-03-08T18:00:51.621Z,8.80
2023-03-08T18:03:18.649Z,8.80
2023-03-08T18:05:52.512Z,8.70
2023-03-08T18:08:19.586Z,8.80
2023-03-08T18:10:46.288Z,8.70
2023-03-08T18:13:13.048Z,8.80
2023-03-08T18:15:39.892Z,8.80
2023-03-08T18:18:06.652Z,8.80
2023-03-08T18:20:35.158Z,8.80
2023-03-08T18:23:03.936Z,8.70
2023-03-08T18:25:30.646Z,8.60
2023-03-08T18:27:57.426Z,8.60
2023-03-08T18:30:24.250Z,8.60
2023-03-08T18:32:51.049Z,8.50
2023-03-08T18:35:17.843Z,8.50
2023-03-08T18:37:44.765Z,8.50
2023-03-08T18:40:12.566Z,8.60
2023-03-08T18:42:39.861Z,8.70
2023-03-08T18:45:08.143Z,8.50
2023-03-08T18:47:35.214Z,8.50
2023-03-08T18:50:02.160Z,8.50
2023-03-08T18:52:29.031Z,8.60
2023-03-08T18:54:55.822Z,8.50
2023-03-08T18:57:22.791Z,8.50
2023-03-08T18:59:49.525Z,8.70
2023-03-08T19:02:18.542Z,8.60
2023-03-08T19:04:45.348Z,8.60
2023-03-08T19:07:13.089Z,8.50
2023-03-08T19:09:43.547Z,8.50
2023-03-08T19:12:10.728Z,8.40
2023-03-08T19:14:37.798Z,8.40
2023-03-08T19:17:04.553Z,8.50
2023-03-08T19:19:31.361Z,8.40
2023-03-08T19:21:58.127Z,8.40
2023-03-08T19:24:26.696Z,8.50
2023-03-08T19:26:57.061Z,8.60
2023-03-08T19:29:25.065Z,8.60
2023-03-08T19:31:53.190Z,8.50
2023-03-08T19:34:22.284Z,8.50
2023-03-08T19:36:49.191Z,8.50
2023-03-08T19:39:19.840Z,8.50
2023-03-08T19:41:50.837Z,8.50
2023-03-08T19:44:18.138Z,8.60
2023-03-08T19:46:45.589Z,8.50
2023-03-08T19:49:13.608Z,8.90
2023-03-08T19:51:40.388Z,8.90
2023-03-08T19:54:07.314Z,8.80
2023-03-08T19:56:34.236Z,8.80
2023-03-08T19:59:01.283Z,8.70
2023-03-08T20:01:28.330Z,8.80
2023-03-08T20:03:55.433Z,8.80
2023-03-08T20:06:27.148Z,8.90
2023-03-08T20:08:54.073Z,8.80
2023-03-08T20:11:21.154Z,8.80
2023-03-08T20:13:48.130Z,8.90
2023-03-08T20:16:15.250Z,8.90
2023-03-08T20:18:42.572Z,9.00
2023-03-08T20:21:09.301Z,8.90
2023-03-08T20:23:36.289Z,8.80
2023-03-08T20:26:03.984Z,8.80
2023-03-08T20:28:30.758Z,8.80
2023-03-08T20:30:57.532Z,8.80
2023-03-08T20:33:24.258Z,8.60
2023-03-08T20:35:58.124Z,8.60
2023-03-08T20:38:25.673Z,8.50
2023-03-08T20:41:06.163Z,8.50
2023-03-08T20:43:33.440Z,8.60
2023-03-08T20:46:05.820Z,8.60
2023-03-08T20:48:33.750Z,8.50
2023-03-08T20:51:01.267Z,8.40
2023-03-08T20:53:28.994Z,8.30
2023-03-08T20:55:55.735Z,8.40
2023-03-08T20:58:22.758Z,8.40
2023-03-08T21:00:49.999Z,8.30
2023-03-08T21:03:17.148Z,8.30
2023-03-08T21:05:44.016Z,8.30
2023-03-08T21:08:10.773Z,8.40
2023-03-08T21:10:38.133Z,8.30
2023-03-08T21:13:06.618Z,8.30
2023-03-08T21:15:34.142Z,8.40
2023-03-08T21:18:00.975Z,8.30
2023-03-08T21:20:28.429Z,8.30
2023-03-08T21:22:55.224Z,8.20
2023-03-08T21:25:22.022Z,8.20
2023-03-08T21:27:49.058Z,8.10
2023-03-08T21:30:15.894Z,8.20
2023-03-08T21:32:42.716Z,8.20
2023-03-08T21:35:09.796Z,8.30
2023-03-08T21:37:36.540Z,8.30
2023-03-08T21:40:05.441Z,8.20
2023-03-08T21:42:32.206Z,8.30
2023-03-08T21:44:58.997Z,8.40
2023-03-08T21:47:25.717Z,8.40
2023-03-08T21:49:52.470Z,8.50
2023-03-08T21:52:19.188Z,8.70
2023-03-08T21:54:46.036Z,8.80
2023-03-08T21:57:12.797Z,8.90
2023-03-08T21:59:39.589Z,8.90
2023-03-08T22:02:06.383Z,9.00
2023-03-08T22:04:33.184Z,9.00
2023-03-08T22:06:59.901Z,9.10
2023-03-08T22:09:29.072Z,9.20
2023-03-08T22:11:57.113Z,9.20
2023-03-08T22:14:24.103Z,9.20
2023-03-08T22:16:50.869Z,9.30
2023-03-08T22:19:18.149Z,9.30
2023-03-08T22:21:44.954Z,9.30
2023-03-08T22:24:11.860Z,9.30
2023-03-08T22:26:38.866Z,9.30
2023-03-08T22:29:05.672Z,9.30
2023-03-08T22:31:32.669Z,9.30
2023-03-08T22:34:00.674Z,9.40
2023-03-08T22:36:27.432Z,9.30
2023-03-08T22:38:54.505Z,9.20
2023-03-08T22:41:22.654Z,9.30
2023-03-08T22:43:49.555Z,9.20
2023-03-08T22:46:17.769Z,9.20
2023-03-08T22:48:45.348Z,9.10
2023-03-08T22:51:12.588Z,9.10
2023-03-08T22:53:40.292Z,9.00
2023-03-08T22:56:08.236Z,9.10
2023-03-08T22:58:35.075Z,9.00
2023-03-08T23:01:01.820Z,9.10
2023-03-08T23:03:28.689Z,9.10
2023-03-08T23:05:56.446Z,9.00
2023-03-08T23:08:24.329Z,9.00
2023-03-08T23:10:51.210Z,9.10
2023-03-08T23:13:32.705Z,9.00
2023-03-08T23:16:00.156Z,9.10
2023-03-08T23:18:26.954Z,9.10
2023-03-08T23:20:53.954Z,9.10
2023-03-08T23:23:24.881Z,9.10
2023-03-08T23:25:52.067Z,9.10
2023-03-08T23:28:19.438Z,9.10
2023-03-08T23:30:46.160Z,9.20
2023-03-08T23:33:13.221Z,9.20
2023-03-08T23:35:40.070Z,9.30
2023-03-08T23:38:07.186Z,9.30
2023-03-08T23:40:34.141Z,9.20
2023-03-08T23:43:01.182Z,9.30
2023-03-08T23:45:28.107Z,9.30
2023-03-08T23:47:54.846Z,9.30
2023-03-08T23:50:21.663Z,9.40
2023-03-08T23:52:48.400Z,9.30
2023-03-08T23:55:15.127Z,9.30
2023-03-08T23:57:41.844Z,9.30
